Time;durP1;ratioP1;P1;durP2;ratioP2;P2;SDS_P1;SDS_P2;PMS_P1;PMS_P2;Temp;Humidity;BMP_temperature;BMP_pressure;BME280_temperature;BME280_humidity;BME280_pressure;Samples;Min_cycle;Max_cycle;Signal;HPM_P1;HPM_P2
2021/12/07 00:02:24;;;;;;;27.92;13.77;;;;;;;0.23;100.00;99788.97;6141291;29;20077;-91
2021/12/07 00:05:26;;;;;;;32.38;13.93;;;;;;;0.12;100.00;99784.34;6141448;29;20054;-91
2021/12/07 00:08:29;;;;;;;26.77;11.30;;;;;;;0.08;100.00;99782.06;6142462;28;20054;-91
2021/12/07 00:11:32;;;;;;;24.85;12.93;;;;;;;0.00;100.00;99777.34;6141296;29;20085;-91
2021/12/07 00:14:39;;;;;;;25.17;11.90;;;;;;;-0.06;100.00;99767.44;6141502;28;20224;-91
2021/12/07 00:17:42;;;;;;;23.67;11.55;;;;;;;-0.08;100.00;99764.13;6142253;28;20054;-91
2021/12/07 00:20:44;;;;;;;24.85;11.82;;;;;;;-0.02;100.00;99751.97;6142060;29;20548;-91
2021/12/07 00:23:48;;;;;;;22.80;12.00;;;;;;;-0.07;100.00;99753.91;6142994;28;20178;-91
2021/12/07 00:27:10;;;;;;;23.67;12.23;;;;;;;-0.09;100.00;99750.59;6137104;29;20043;-91
2021/12/07 00:30:15;;;;;;;22.40;11.55;;;;;;;-0.03;100.00;99742.66;6141877;28;20443;-91
2021/12/07 00:33:36;;;;;;;25.60;11.80;;;;;;;-0.03;100.00;99737.56;6143971;28;20040;-91
2021/12/07 00:36:44;;;;;;;23.92;10.80;;;;;;;0.00;100.00;99739.19;6140456;29;20493;-91
2021/12/07 00:39:46;;;;;;;27.08;12.23;;;;;;;0.02;100.00;99726.38;6143903;28;20043;-91
2021/12/07 00:42:49;;;;;;;24.75;11.05;;;;;;;0.00;100.00;99723.91;6140795;28;20058;-91
2021/12/07 00:45:54;;;;;;;24.42;11.30;;;;;;;0.12;100.00;99718.19;6139891;29;20039;-91
2021/12/07 00:48:57;;;;;;;22.08;10.82;;;;;;;0.15;100.00;99714.69;6142082;28;20146;-91
2021/12/07 00:52:00;;;;;;;24.88;11.20;;;;;;;0.12;100.00;99714.84;6141479;28;20049;-91
2021/12/07 00:55:09;;;;;;;20.75;10.35;;;;;;;0.11;100.00;99721.66;6138016;29;20054;-91
2021/12/07 16:43:34;;;;;;;44.40;17.37;;;;;;;0.14;100.00;99894.53;6271714;28;20921;-92
2021/12/07 16:46:36;;;;;;;41.00;16.38;;;;;;;0.14;100.00;99893.72;6275308;28;20360;-92
2021/12/07 16:49:38;;;;;;;45.88;17.33;;;;;;;0.06;100.00;99890.72;6272701;28;20188;-93
2021/12/07 16:52:42;;;;;;;38.88;16.08;;;;;;;0.04;100.00;99890.75;6283047;28;20060;-92
2021/12/07 16:55:47;;;;;;;39.42;16.13;;;;;;;0.06;100.00;99894.06;6273158;28;20052;-93
2021/12/07 16:58:49;;;;;;;42.15;15.45;;;;;;;0.20;100.00;99893.44;6264825;28;20190;-92
2021/12/07 17:01:51;;;;;;;47.33;16.85;;;;;;;0.25;100.00;99881.34;6277162;28;20061;-93
2021/12/07 17:04:53;;;;;;;42.08;16.52;;;;;;;0.27;100.00;99886.34;6273189;28;20498;-92
2021/12/07 17:07:57;;;;;;;34.38;14.43;;;;;;;0.10;100.00;99884.56;6265774;28;20654;-91
2021/12/07 17:10:58;;;;;;;34.33;14.27;;;;;;;0.08;100.00;99881.28;6263299;28;20055;-91
2021/12/07 17:14:00;;;;;;;28.63;13.23;;;;;;;0.07;100.00;99877.06;6286691;28;20121;-91
2021/12/07 17:17:03;;;;;;;30.08;13.25;;;;;;;0.00;100.00;99874.00;6280262;28;20040;-91
2021/12/07 17:20:21;;;;;;;32.13;14.05;;;;;;;-0.09;100.00;99869.34;6269604;28;20048;-91
2021/12/07 17:23:25;;;;;;;34.25;14.13;;;;;;;-0.15;100.00;99873.00;6279526;28;20102;-91
2021/12/07 17:26:27;;;;;;;31.00;13.95;;;;;;;-0.17;100.00;99868.84;6267712;28;20138;-90
2021/12/07 17:29:34;;;;;;;28.45;12.95;;;;;;;-0.20;100.00;99858.81;6273697;28;20138;-91
2021/12/07 17:32:36;;;;;;;29.65;13.48;;;;;;;-0.15;100.00;99862.81;6274680;28;20041;-91
2021/12/07 17:35:39;;;;;;;25.80;12.65;;;;;;;-0.21;100.00;99847.81;6268182;28;20033;-91
2021/12/07 17:38:42;;;;;;;27.52;12.77;;;;;;;-0.24;100.00;99843.69;6282313;28;20134;-91
2021/12/07 17:41:46;;;;;;;25.48;12.68;;;;;;;-0.27;100.00;99848.09;6295079;28;20067;-91
2021/12/07 17:44:49;;;;;;;26.00;12.77;;;;;;;-0.28;100.00;99837.09;6269917;28;20041;-91
2021/12/07 17:47:53;;;;;;;25.45;11.48;;;;;;;-0.28;100.00;99826.91;6262497;28;20041;-91
2021/12/07 17:50:55;;;;;;;28.70;12.38;;;;;;;-0.22;100.00;99829.19;6263716;28;20037;-91
2021/12/07 17:53:58;;;;;;;26.08;11.82;;;;;;;-0.18;100.00;99818.88;6259024;28;20033;-91
2021/12/07 17:57:01;;;;;;;26.58;11.57;;;;;;;-0.19;100.00;99819.78;6257975;28;20045;-91
2021/12/07 18:00:19;;;;;;;24.90;12.50;;;;;;;-0.19;100.00;99804.53;6244488;28;20091;-91
2021/12/07 18:03:24;;;;;;;24.58;11.73;;;;;;;-0.25;100.00;99810.69;6257016;28;20051;-91
2021/12/07 18:06:26;;;;;;;25.73;12.18;;;;;;;-0.20;100.00;99802.84;6257351;28;20033;-91
2021/12/07 18:09:28;;;;;;;29.50;13.18;;;;;;;-0.21;100.00;99791.88;6252078;28;20135;-91
2021/12/07 18:12:30;;;;;;;25.40;10.77;;;;;;;-0.20;100.00;99788.41;6253561;28;20036;-91
2021/12/07 18:15:41;;;;;;;24.15;11.60;;;;;;;-0.15;100.00;99780.56;6248223;28;20052;-91
2021/12/07 18:18:43;;;;;;;26.02;11.15;;;;;;;-0.23;100.00;99781.75;6247224;28;20127;-91
2021/12/07 18:21:46;;;;;;;21.85;11.57;;;;;;;-0.32;100.00;99773.75;6253306;28;20098;-91
2021/12/07 18:25:08;;;;;;;27.10;12.23;;;;;;;-0.36;100.00;99769.69;6251203;28;20132;-91
2021/12/07 18:28:13;;;;;;;24.10;11.85;;;;;;;-0.40;100.00;99779.16;6245308;28;20048;-91
2021/12/07 18:31:14;;;;;;;21.27;11.35;;;;;;;-0.39;100.00;99768.13;6255850;28;20066;-91
2021/12/07 18:34:16;;;;;;;21.80;11.75;;;;;;;-0.45;100.00;99760.75;6252539;28;20048;-91
2021/12/07 18:37:18;;;;;;;22.65;11.73;;;;;;;-0.50;100.00;99755.06;6248390;28;20033;-91
2021/12/07 18:40:21;;;;;;;24.48;12.82;;;;;;;-0.55;100.00;99751.91;6256151;28;20041;-91
2021/12/07 18:43:23;;;;;;;24.45;11.35;;;;;;;-0.56;100.00;99756.19;6252080;28;20048;-91
2021/12/07 18:46:27;;;;;;;21.40;11.55;;;;;;;-0.52;100.00;99751.75;6257272;28;20041;-91
2021/12/07 18:49:29;;;;;;;25.05;10.88;;;;;;;-0.54;100.00;99754.41;6249487;28;20045;-91
2021/12/07 18:52:39;;;;;;;18.65;11.20;;;;;;;-0.56;100.00;99755.34;6248649;28;20041;-91
2021/12/07 18:55:42;;;;;;;21.70;11.15;;;;;;;-0.59;100.00;99745.34;6254958;28;20045;-91
2021/12/07 18:58:44;;;;;;;20.67;10.23;;;;;;;-0.58;100.00;99739.34;6258344;28;20069;-91
2021/12/07 19:01:46;;;;;;;22.83;11.05;;;;;;;-0.60;100.00;99738.59;6247676;28;20048;-91
2021/12/07 19:04:48;;;;;;;20.45;11.13;;;;;;;-0.58;100.00;99724.09;6245115;28;20047;-91
2021/12/07 19:07:51;;;;;;;21.65;10.30;;;;;;;-0.60;100.00;99728.44;6231832;28;20050;-91
2021/12/07 19:10:55;;;;;;;20.75;10.88;;;;;;;-0.62;100.00;99707.34;6248949;28;20052;-91
2021/12/07 19:13:56;;;;;;;20.27;11.15;;;;;;;-0.61;100.00;99699.66;6249289;28;20619;-91
2021/12/07 19:16:58;;;;;;;24.27;11.07;;;;;;;-0.60;100.00;99703.00;6252570;28;20041;-91
2021/12/07 19:20:00;;;;;;;20.67;11.13;;;;;;;-0.57;100.00;99695.22;6246897;28;20048;-91
2021/12/07 19:23:05;;;;;;;19.13;9.35;;;;;;;-0.61;100.00;99691.22;6250505;28;20072;-91
2021/12/07 19:26:09;;;;;;;19.98;10.00;;;;;;;-0.60;100.00;99692.84;6250130;28;20041;-91
2021/12/07 19:29:10;;;;;;;21.95;10.25;;;;;;;-0.61;100.00;99681.03;6245073;28;20041;-91
2021/12/07 19:32:13;;;;;;;18.98;9.95;;;;;;;-0.62;100.00;99669.22;6250971;28;20143;-91
2021/12/07 19:35:27;;;;;;;17.92;9.48;;;;;;;-0.49;100.00;99660.13;6251208;28;20041;-91
2021/12/07 19:38:29;;;;;;;17.35;9.07;;;;;;;-0.47;100.00;99656.63;6246225;28;20068;-91
2021/12/07 19:41:33;;;;;;;20.33;9.55;;;;;;;-0.44;100.00;99642.94;6253930;28;20193;-91
2021/12/07 19:44:35;;;;;;;17.15;9.48;;;;;;;-0.43;100.00;99647.94;6245334;28;20044;-91
2021/12/07 19:47:37;;;;;;;18.52;10.10;;;;;;;-0.41;100.00;99640.25;6255464;28;20038;-91
2021/12/07 19:50:44;;;;;;;20.80;10.13;;;;;;;-0.39;100.00;99628.28;6254643;28;20127;-91
2021/12/07 19:53:54;;;;;;;18.17;9.85;;;;;;;-0.43;100.00;99624.25;6246130;28;20489;-91
2021/12/07 19:56:56;;;;;;;19.65;9.13;;;;;;;-0.33;100.00;99617.00;6248881;28;20065;-91
2021/12/07 19:59:58;;;;;;;17.33;8.88;;;;;;;-0.34;100.00;99603.47;6243060;28;20041;-91
2021/12/07 20:03:01;;;;;;;15.05;8.68;;;;;;;-0.28;100.00;99605.69;6245129;28;20046;-91
2021/12/07 20:06:04;;;;;;;21.15;8.77;;;;;;;-0.28;100.00;99592.16;6241273;28;20045;-92
2021/12/07 20:09:08;;;;;;;15.57;8.10;;;;;;;-0.15;100.00;99590.69;6251946;28;20203;-91
2021/12/07 20:12:11;;;;;;;14.38;7.65;;;;;;;0.05;100.00;99587.13;6247641;28;20048;-91
2021/12/07 20:15:13;;;;;;;18.65;8.35;;;;;;;-0.05;100.00;99581.69;6252759;28;20041;-91
2021/12/07 20:18:21;;;;;;;15.68;7.57;;;;;;;-0.11;100.00;99578.63;6249224;28;20501;-91
2021/12/07 20:21:26;;;;;;;14.48;7.40;;;;;;;-0.14;100.00;99578.78;6242708;28;20117;-91
2021/12/07 20:24:29;;;;;;;13.93;8.02;;;;;;;-0.02;100.00;99570.53;6241945;28;20044;-91
2021/12/07 20:27:31;;;;;;;12.32;7.15;;;;;;;-0.10;100.00;99565.00;6254746;28;20034;-91
2021/12/07 20:30:40;;;;;;;11.30;6.70;;;;;;;-0.17;100.00;99556.88;6251089;28;20036;-91
2021/12/07 20:33:44;;;;;;;12.80;6.80;;;;;;;-0.13;100.00;99547.34;6256472;28;20056;-91
2021/12/07 20:36:46;;;;;;;16.00;7.00;;;;;;;-0.13;100.00;99538.00;6255419;28;20128;-91
2021/12/07 20:39:49;;;;;;;11.40;6.60;;;;;;;-0.05;100.00;99540.97;6249673;28;20060;-91
2021/12/07 20:42:57;;;;;;;12.82;7.15;;;;;;;-0.01;100.00;99536.56;6246277;28;20079;-91
2021/12/07 20:46:02;;;;;;;14.23;7.53;;;;;;;-0.07;100.00;99530.06;6248450;28;20120;-91
2021/12/07 20:49:06;;;;;;;11.23;5.90;;;;;;;-0.07;100.00;99524.16;6249325;28;20120;-91
2021/12/07 20:52:08;;;;;;;11.25;6.00;;;;;;;-0.11;100.00;99525.22;6241604;28;20049;-91
2021/12/07 20:55:10;;;;;;;12.00;7.03;;;;;;;-0.04;100.00;99529.91;6245369;28;20112;-91
2021/12/07 20:58:14;;;;;;;11.23;5.93;;;;;;;-0.13;100.00;99524.47;6246479;28;20048;-91
2021/12/07 21:01:18;;;;;;;14.35;6.03;;;;;;;-0.23;100.00;99524.91;6251608;28;20075;-91
2021/12/07 21:04:20;;;;;;;9.77;5.80;;;;;;;-0.20;100.00;99525.66;6239761;28;20041;-91
2021/12/07 21:07:22;;;;;;;13.93;6.72;;;;;;;-0.20;100.00;99525.66;6223961;28;20053;-91
2021/12/07 21:10:25;;;;;;;9.95;6.57;;;;;;;-0.16;100.00;99517.00;6244209;28;20108;-91
2021/12/07 21:13:31;;;;;;;9.95;7.22;;;;;;;-0.17;100.00;99508.53;6240715;28;20466;-91
2021/12/07 21:16:41;;;;;;;12.68;6.05;;;;;;;-0.17;100.00;99508.53;6250120;28;20044;-91
2021/12/07 21:19:50;;;;;;;9.45;5.30;;;;;;;-0.14;100.00;99513.47;6243242;28;20041;-91
2021/12/07 21:22:53;;;;;;;10.93;6.15;;;;;;;-0.17;100.00;99494.97;6240515;28;20200;-91
2021/12/07 21:25:56;;;;;;;8.60;5.38;;;;;;;-0.15;100.00;99499.13;6243890;28;20118;-91
2021/12/07 21:28:59;;;;;;;12.25;5.90;;;;;;;-0.24;100.00;99497.84;6254537;28;22197;-91
2021/12/07 21:32:03;;;;;;;12.77;5.95;;;;;;;-0.31;100.00;99495.72;6262898;28;20037;-91
2021/12/07 21:35:10;;;;;;;10.45;5.35;;;;;;;-0.36;100.00;99479.88;6258231;28;20037;-91
2021/12/07 21:38:12;;;;;;;12.07;6.03;;;;;;;-0.38;100.00;99472.31;6252103;28;20049;-91
2021/12/07 21:41:14;;;;;;;10.88;5.35;;;;;;;-0.37;100.00;99470.56;6254103;28;20094;-91
2021/12/07 21:44:21;;;;;;;9.68;6.28;;;;;;;-0.40;100.00;99471.56;6250205;28;20045;-91
2021/12/07 21:47:24;;;;;;;9.68;5.28;;;;;;;-0.37;100.00;99462.94;6253671;28;20295;-91
2021/12/07 21:50:28;;;;;;;9.18;5.25;;;;;;;-0.44;100.00;99462.47;6250164;28;20041;-91
2021/12/07 21:53:30;;;;;;;13.88;5.28;;;;;;;-0.42;100.00;99447.97;6258547;28;20043;-91
2021/12/07 21:56:33;;;;;;;9.45;4.75;;;;;;;-0.47;100.00;99438.03;6254096;28;20040;-91
2021/12/07 21:59:36;;;;;;;7.78;4.95;;;;;;;-0.47;100.00;99421.94;6253064;28;20539;-91
2021/12/07 22:02:39;;;;;;;9.93;5.13;;;;;;;-0.44;100.00;99429.41;6250027;28;20442;-91
2021/12/07 22:05:43;;;;;;;13.40;5.68;;;;;;;-0.34;100.00;99420.41;6248219;28;20044;-91
2021/12/07 22:08:48;;;;;;;11.52;4.80;;;;;;;-0.25;100.00;99412.31;6252486;28;20669;-91
2021/12/07 22:11:50;;;;;;;11.95;4.80;;;;;;;-0.20;100.00;99414.59;6248651;28;20055;-91
2021/12/07 22:14:53;;;;;;;12.07;5.32;;;;;;;-0.20;100.00;99399.34;6248513;28;20056;-91
2021/12/07 22:17:56;;;;;;;10.13;4.85;;;;;;;-0.06;100.00;99401.16;6257174;28;20410;-91
2021/12/07 22:21:00;;;;;;;10.18;4.57;;;;;;;-0.09;100.00;99381.78;6253480;28;20041;-91
2021/12/07 22:24:02;;;;;;;10.68;4.70;;;;;;;-0.09;100.00;99375.91;6253343;28;20052;-91
2021/12/07 22:27:07;;;;;;;9.40;4.88;;;;;;;-0.06;100.00;99373.19;6409135;22;20037;-93
2021/12/07 22:30:36;;;;;;;9.35;5.18;;;;;;;-0.09;100.00;99360.63;6440115;23;20038;-93
2021/12/07 22:38:38;;;;;;;8.38;5.22;;;;;;;-0.25;100.00;99318.22;6209277;28;20066;-93
2021/12/07 22:41:59;;;;;;;10.43;4.75;;;;;;;-0.25;100.00;99305.53;6257902;23;20038;-92
2021/12/07 22:45:04;;;;;;;8.98;4.97;;;;;;;-0.08;100.00;99293.59;6264997;23;20038;-92
2021/12/07 22:48:21;;;;;;;13.73;4.60;;;;;;;-0.09;100.00;99271.63;6752779;23;20054;-93
2021/12/07 22:59:32;;;;;;;6.45;3.63;;;;;;;-0.12;100.00;99238.72;6304658;23;20060;-92
2021/12/07 23:02:38;;;;;;;10.82;4.07;;;;;;;-0.11;100.00;99228.47;6170388;23;20055;-93
2021/12/07 23:06:12;;;;;;;9.95;4.20;;;;;;;-0.10;100.00;99224.19;6318856;23;20055;-93
2021/12/07 23:12:57;;;;;;;9.93;4.18;;;;;;;0.08;100.00;99204.53;6107859;29;20040;-93
2021/12/07 23:16:41;;;;;;;7.65;3.63;;;;;;;0.31;100.00;99208.31;4947096;23;20044;-92
2021/12/07 23:19:43;;;;;;;8.18;4.10;;;;;;;0.41;100.00;99192.41;6150772;29;20055;-91
2021/12/07 23:22:49;;;;;;;6.60;3.25;;;;;;;0.57;100.00;99194.03;6130474;28;20047;-91
2021/12/07 23:25:54;;;;;;;8.20;3.45;;;;;;;0.63;100.00;99189.41;6143028;29;20048;-91
2021/12/07 23:28:56;;;;;;;4.28;2.50;;;;;;;0.79;100.00;99166.38;6132827;29;20497;-91
2021/12/07 23:32:00;;;;;;;4.97;2.95;;;;;;;0.90;100.00;99154.75;6123138;29;20040;-91
2021/12/07 23:35:02;;;;;;;8.85;3.05;;;;;;;0.92;100.00;99158.00;6121979;29;20044;-91
2021/12/07 23:38:07;;;;;;;5.25;2.90;;;;;;;0.89;100.00;99169.19;6120421;29;20040;-91
2021/12/07 23:41:09;;;;;;;5.22;2.40;;;;;;;0.82;100.00;99158.56;6116417;29;20051;-92
2021/12/07 23:44:17;;;;;;;4.40;2.40;;;;;;;0.95;100.00;99153.53;6125437;29;20047;-91
2021/12/07 23:47:27;;;;;;;7.28;3.28;;;;;;;0.90;100.00;99144.56;6135684;29;20040;-91
2021/12/07 23:50:29;;;;;;;6.95;2.22;;;;;;;0.85;100.00;99172.84;6133102;29;20151;-91
2021/12/07 23:57:12;;;;;;;;;;;;;;;0.81;100.00;99159.47;6131040;29;20032;-91
